Nearby METAR Reports

 

YMER - Merimbula Arpt, Australia
Distance from station: SE 12km
Updated: 11/07/2020 02:00
Clear
Clear
 Wind from calm
Wind: Calm
Temperature: 4°C
Dew Point: 4°C
Humidity: 100%
Barometer: 1019 hPa
Clouds: Clear
Visibility: 10 km
2020/07/10 16:00 YMER 101600Z AUTO 00000KT 9999 // NCD 04/04 Q1019
YCOM - Cooma Snowy Mtns, Australia
Distance from station: NW 96km
Updated: 11/07/2020 02:00
Clear
Clear
 Wind from NE
Wind: NE 13 km/h
Temperature: 0°C
Wind Chill: -4°C
Dew Point: -1°C
Humidity: 93%
Barometer: 1019 hPa
Clouds: Clear
Visibility: 10 km
2020/07/10 16:00 YCOM 101600Z AUTO 05007KT 9999 // NCD M00/M01 Q1019
 
YSCB - Canberra (civ/Mi, Australia
Distance from station: NNW 182km
Updated: 11/07/2020 02:11
Clear
Clear
 Wind from SSE
Wind: SSE 6 km/h
Temperature: 1°C
Dew Point: 1°C
Humidity: 100%
Barometer: 1020 hPa
Clouds: Clear
Visibility: 6 km
2020/07/10 16:11 YSCB 101611Z AUTO 15003KT 6000 // NCD 01/01 Q1020
YSNW - Nowra (aus-Navy), Australia
Distance from station: NNE 219km
Updated: 11/07/2020 02:00
Overcast
Overcast
 Wind from NW
Wind: NW 11 km/h
Temperature: 11°C
Dew Point: 7°C
Humidity: 77%
Barometer: 1019 hPa
Clouds: Overcast
Visibility: 10 km
Cloud details: Overcast 1890 m
2020/07/10 16:00 YSNW 101600Z AUTO 31006KT 9999 // OVC062 11/07 Q1019
 
YMAY - Albury Airport, Australia
Distance from station: WNW 271km
Updated: 11/07/2020 02:00
Mostly cloudy
Mostly cloudy
 Wind from calm
Wind: Calm
Temperature: 8°C
Dew Point: 8°C
Humidity: 100%
Barometer: 1020 hPa
Clouds: Mostly cloudy
Visibility: 10 km
Cloud details: Mostly cloudy 853 m
Mostly cloudy 1067 m
Mostly cloudy 3658 m
2020/07/10 16:00 YMAY 101600Z AUTO 00000KT 9999 // BKN028 BKN035 BKN120 08/08 Q1020
YSWG - Wagga Wagga(Cv/M, Australia
Distance from station: NW 283km
Updated: 11/07/2020 02:00
Partly cloudy
Partly cloudy
 Wind from E
Wind: E 9 km/h
Temperature: 7°C
Wind Chill: 6°C
Dew Point: 7°C
Humidity: 100%
Barometer: 1019 hPa
Clouds: Partly cloudy
Visibility: 10 km
Cloud details: Partly cloudy 2195 m
2020/07/10 16:00 YSWG 101600Z AUTO 08005KT 9999 // SCT072 07/07 Q1019
 
YWGT - Wangaratta Arp, Australia
Distance from station: W 317km
Updated: 11/07/2020 02:00

 Wind from E
Wind: E 9 km/h
Temperature: 10°C
Wind Chill: 9°C
Dew Point: 10°C
Humidity: 100%
Barometer: 1020 hPa
Visibility: 10 km
2020/07/10 16:00 YWGT 101600Z AUTO 09005KT 9999 // ////// 10/10 Q1020
YSSY - Sydney Intl Airp, Australia
Distance from station: NNE 343km
Updated: 11/07/2020 02:00
Clear
Clear
 Wind from NW
Wind: NW 9 km/h
Temperature: 13°C
Dew Point: 12°C
Humidity: 94%
Barometer: 1020 hPa
Summary: Clear
Visibility: greater than 10 km
2020/07/10 16:00 YSSY 101600Z 31005KT CAVOK 13/12 Q1020